Terminal Aerodrome Forecast
Issued by NWS Sioux Falls, SD

Home | Current Version | Previous Version | Text Only | Print | Product List | Glossary Off
Versions: 1 2 3 4 5 6 7 8 9 10 11 12 13 14 15 16

000
FTUS43 KFSD 170733 AAB
TAFFSD
TAF AMD
KFSD 170733Z 1708/1806 02007KT 6SM BR SCT010 BKN150
      TEMPO 1708/1711 5SM BR
     FM171100 03007KT 4SM BR SCT007 BKN120
     FM171600 36005KT P6SM SCT100
     FM180100 20004KT P6SM BKN100=

USA.gov is the U.S. government's official web portal to all federal, state and local government web resources and services.